createdAt,value
2022-12-26T00:02:14.668Z,88.00
2022-12-26T00:04:51.490Z,88.10
2022-12-26T00:07:22.673Z,88.20
2022-12-26T00:09:52.198Z,88.60
2022-12-26T00:12:21.916Z,88.40
2022-12-26T00:14:51.582Z,88.40
2022-12-26T00:17:21.265Z,88.30
2022-12-26T00:19:50.866Z,88.50
2022-12-26T00:22:20.555Z,88.50
2022-12-26T00:24:50.331Z,88.50
2022-12-26T00:27:19.982Z,88.50
2022-12-26T00:29:50.313Z,88.70
2022-12-26T00:32:19.975Z,88.70
2022-12-26T00:34:49.523Z,88.80
2022-12-26T00:37:19.149Z,88.90
2022-12-26T00:39:48.802Z,88.80
2022-12-26T00:42:18.451Z,88.90
2022-12-26T00:44:48.018Z,88.90
2022-12-26T00:47:17.629Z,89.00
2022-12-26T00:50:14.307Z,89.20
2022-12-26T00:52:36.853Z,88.90
2022-12-26T00:55:06.754Z,90.00
2022-12-26T00:57:36.388Z,89.40
2022-12-26T01:00:07.045Z,89.20
2022-12-26T01:02:40.004Z,88.80
2022-12-26T01:05:12.644Z,89.10
2022-12-26T01:08:20.423Z,89.30
2022-12-26T01:10:32.598Z,89.10
2022-12-26T01:13:02.231Z,89.40
2022-12-26T01:15:32.041Z,89.60
2022-12-26T01:18:02.653Z,89.40
2022-12-26T01:20:32.513Z,89.40
2022-12-26T01:23:02.279Z,89.50
2022-12-26T01:25:31.959Z,89.40
2022-12-26T01:28:01.576Z,89.40
2022-12-26T01:30:31.151Z,89.50
2022-12-26T01:33:00.872Z,89.30
2022-12-26T01:35:30.455Z,89.20
2022-12-26T01:38:00.424Z,89.20
2022-12-26T01:40:30.232Z,89.00
2022-12-26T01:42:59.879Z,89.00
2022-12-26T01:45:33.088Z,88.70
2022-12-26T01:48:19.661Z,88.50
2022-12-26T01:50:59.101Z,88.30
2022-12-26T01:53:41.551Z,88.10
2022-12-26T01:56:14.098Z,88.00
2022-12-26T01:58:56.769Z,87.90
2022-12-26T02:01:31.748Z,87.70
2022-12-26T02:04:24.159Z,87.50
2022-12-26T02:06:54.475Z,87.30
2022-12-26T02:09:24.784Z,87.10
2022-12-26T02:12:35.016Z,87.10
2022-12-26T02:14:53.850Z,86.80
2022-12-26T02:17:23.484Z,86.70
2022-12-26T02:20:24.565Z,86.60
2022-12-26T02:23:33.292Z,86.40
2022-12-26T02:26:42.074Z,86.00
2022-12-26T02:29:50.711Z,85.70
2022-12-26T02:32:59.419Z,85.30
2022-12-26T02:35:58.110Z,85.20
2022-12-26T02:38:59.172Z,84.60
2022-12-26T02:41:55.546Z,84.50
2022-12-26T02:44:49.048Z,84.30
2022-12-26T02:47:38.665Z,84.10
2022-12-26T02:50:58.048Z,83.70
2022-12-26T02:54:09.405Z,83.40
2022-12-26T02:57:04.727Z,83.10
2022-12-26T03:00:24.185Z,82.80
2022-12-26T03:03:24.783Z,82.80
2022-12-26T03:06:42.343Z,81.80
2022-12-26T03:09:38.422Z,81.60
2022-12-26T03:12:51.546Z,82.10
2022-12-26T03:15:24.491Z,80.70
2022-12-26T03:18:04.684Z,80.00
2022-12-26T03:20:37.701Z,77.70
2022-12-26T03:23:13.934Z,76.10
2022-12-26T03:26:16.257Z,75.50
2022-12-26T03:28:46.356Z,75.50
2022-12-26T03:31:17.705Z,73.80
2022-12-26T03:34:08.812Z,73.00
2022-12-26T03:37:05.011Z,73.40
2022-12-26T03:40:33.238Z,72.80
2022-12-26T03:43:54.997Z,72.70
2022-12-26T03:47:23.299Z,72.80
2022-12-26T03:50:18.185Z,72.80
2022-12-26T03:53:31.373Z,71.40
2022-12-26T03:56:43.452Z,70.10
2022-12-26T03:59:41.116Z,69.20
2022-12-26T04:02:33.111Z,69.50
2022-12-26T04:05:26.744Z,69.00
2022-12-26T04:08:21.346Z,69.50
2022-12-26T04:11:16.768Z,69.10
2022-12-26T04:14:45.529Z,69.00
2022-12-26T04:18:02.190Z,68.70
2022-12-26T04:21:04.204Z,69.00
2022-12-26T04:24:13.432Z,68.70
2022-12-26T04:27:13.117Z,65.90
2022-12-26T04:30:02.823Z,66.60
2022-12-26T04:33:11.799Z,67.40
2022-12-26T04:36:22.899Z,67.00
2022-12-26T04:39:18.963Z,67.50
2022-12-26T04:42:10.885Z,67.00
2022-12-26T04:44:41.447Z,66.60
2022-12-26T04:47:11.389Z,66.90
2022-12-26T04:50:07.741Z,66.40
2022-12-26T04:52:57.009Z,65.70
2022-12-26T04:55:28.881Z,66.50
2022-12-26T04:57:59.527Z,65.70
2022-12-26T05:00:30.599Z,65.40
2022-12-26T05:03:19.958Z,64.50
2022-12-26T05:06:12.203Z,64.70
2022-12-26T05:09:04.867Z,64.50
2022-12-26T05:11:36.965Z,63.00
2022-12-26T05:14:06.970Z,61.90
2022-12-26T05:16:56.217Z,61.40
2022-12-26T05:19:45.342Z,60.30
2022-12-26T05:22:34.510Z,59.30
2022-12-26T05:25:23.713Z,60.50
2022-12-26T05:28:13.043Z,60.70
2022-12-26T05:30:42.566Z,60.90
2022-12-26T05:33:31.711Z,60.80
2022-12-26T05:36:01.646Z,60.60
2022-12-26T05:38:31.244Z,61.20
2022-12-26T05:41:00.933Z,60.90
2022-12-26T05:43:30.417Z,60.00
2022-12-26T05:46:00.161Z,59.20
2022-12-26T05:48:30.041Z,58.50
2022-12-26T05:51:03.830Z,59.40
2022-12-26T05:53:34.604Z,59.30
2022-12-26T05:56:13.968Z,59.50
2022-12-26T05:58:44.402Z,59.80
2022-12-26T06:01:17.900Z,60.00
2022-12-26T06:03:52.724Z,60.00
2022-12-26T06:06:23.318Z,59.90
2022-12-26T06:08:54.840Z,59.80
2022-12-26T06:11:24.938Z,59.60
2022-12-26T06:13:55.253Z,59.50
2022-12-26T06:16:25.476Z,59.70
2022-12-26T06:18:56.922Z,59.40
2022-12-26T06:21:26.905Z,59.50
2022-12-26T06:23:56.577Z,59.50
2022-12-26T06:26:26.193Z,59.50
2022-12-26T06:28:55.903Z,59.40
2022-12-26T06:31:27.018Z,59.40
2022-12-26T06:34:02.977Z,59.20
2022-12-26T06:36:33.254Z,59.20
2022-12-26T06:39:02.862Z,59.20
2022-12-26T06:41:32.568Z,59.00
2022-12-26T06:44:02.134Z,59.00
2022-12-26T06:46:32.149Z,59.00
2022-12-26T06:49:01.899Z,59.20
2022-12-26T06:51:31.883Z,58.90
2022-12-26T06:54:04.569Z,58.50
2022-12-26T06:56:35.891Z,57.50
2022-12-26T06:59:07.298Z,56.50
2022-12-26T07:01:38.030Z,55.60
2022-12-26T07:04:07.895Z,55.50
2022-12-26T07:06:40.011Z,56.30
2022-12-26T07:09:15.884Z,56.90
2022-12-26T07:11:47.769Z,56.50
2022-12-26T07:14:18.445Z,56.40
2022-12-26T07:16:48.514Z,56.50
2022-12-26T07:19:18.211Z,56.60
2022-12-26T07:21:47.874Z,56.80
2022-12-26T07:24:20.844Z,56.90
2022-12-26T07:26:51.024Z,57.10
2022-12-26T07:29:20.609Z,56.80
2022-12-26T07:31:50.410Z,56.20
2022-12-26T07:34:20.135Z,56.80
2022-12-26T07:36:49.747Z,57.00
2022-12-26T07:39:19.410Z,56.60
2022-12-26T07:42:08.570Z,56.70
2022-12-26T07:44:40.379Z,56.60
2022-12-26T07:47:10.770Z,56.60
2022-12-26T07:49:40.264Z,56.50
2022-12-26T07:52:09.861Z,56.20
2022-12-26T07:54:39.530Z,54.20
2022-12-26T07:57:38.637Z,54.70
2022-12-26T07:59:58.812Z,55.10
2022-12-26T08:02:28.602Z,55.30
2022-12-26T08:04:58.384Z,55.20
2022-12-26T08:07:28.618Z,54.50
2022-12-26T08:09:58.192Z,53.60
2022-12-26T08:12:28.756Z,54.00
2022-12-26T08:14:58.762Z,54.00
2022-12-26T08:17:28.527Z,54.10
2022-12-26T08:19:58.049Z,54.30
2022-12-26T08:22:27.668Z,54.20
2022-12-26T08:24:57.241Z,54.30
2022-12-26T08:27:26.832Z,54.30
2022-12-26T08:29:56.490Z,54.20
2022-12-26T08:32:26.067Z,53.60
2022-12-26T08:34:55.621Z,53.50
2022-12-26T08:37:28.726Z,53.80
2022-12-26T08:39:58.241Z,53.80
2022-12-26T08:42:27.811Z,53.70
2022-12-26T08:44:57.463Z,53.50
2022-12-26T08:47:28.898Z,53.70
2022-12-26T08:49:58.557Z,53.70
2022-12-26T08:52:28.100Z,54.00
2022-12-26T08:54:57.631Z,53.90
2022-12-26T08:57:27.277Z,53.90
2022-12-26T08:59:56.857Z,53.90
2022-12-26T09:02:27.530Z,53.10
2022-12-26T09:04:57.253Z,53.60
2022-12-26T09:07:27.231Z,53.50
2022-12-26T09:09:56.787Z,53.20
2022-12-26T09:12:26.447Z,53.20
2022-12-26T09:14:55.956Z,53.60
2022-12-26T09:17:28.285Z,53.80
2022-12-26T09:19:58.370Z,53.30
2022-12-26T09:22:47.558Z,53.40
2022-12-26T09:25:17.255Z,53.00
2022-12-26T09:27:47.140Z,53.30
2022-12-26T09:30:17.563Z,53.50
2022-12-26T09:32:47.105Z,53.60
2022-12-26T09:35:16.721Z,53.60
2022-12-26T09:37:47.498Z,53.70
2022-12-26T09:40:25.311Z,53.80
2022-12-26T09:43:22.899Z,53.90
2022-12-26T09:46:08.916Z,53.90
2022-12-26T09:48:49.677Z,54.00
2022-12-26T09:51:19.342Z,54.10
2022-12-26T09:53:50.344Z,54.30
2022-12-26T09:59:20.821Z,54.50
2022-12-26T10:01:50.750Z,54.70
2022-12-26T10:04:30.032Z,54.70
2022-12-26T10:07:24.697Z,54.80
2022-12-26T10:10:18.060Z,55.00
2022-12-26T10:13:26.820Z,55.10
2022-12-26T10:16:02.126Z,55.10
2022-12-26T10:18:43.221Z,55.30
2022-12-26T10:21:52.437Z,55.40
2022-12-26T10:24:25.641Z,55.50
2022-12-26T10:27:15.929Z,55.60
2022-12-26T10:30:09.061Z,55.60
2022-12-26T10:32:48.179Z,55.80
2022-12-26T10:35:35.613Z,56.00
2022-12-26T10:38:20.378Z,56.10
2022-12-26T10:40:57.193Z,56.40
2022-12-26T10:43:37.206Z,56.60
2022-12-26T10:46:31.064Z,56.80
2022-12-26T10:49:01.390Z,57.00
2022-12-26T10:51:30.947Z,57.20
2022-12-26T10:54:00.666Z,57.50
2022-12-26T10:56:30.467Z,57.80
2022-12-26T10:59:06.920Z,58.00
2022-12-26T11:01:41.103Z,58.20
2022-12-26T11:04:53.100Z,58.40
2022-12-26T11:07:19.213Z,58.60
2022-12-26T11:09:53.189Z,59.10
2022-12-26T11:12:45.509Z,59.40
2022-12-26T11:15:30.663Z,59.60
2022-12-26T11:18:29.761Z,59.80
2022-12-26T11:21:19.690Z,60.10
2022-12-26T11:23:51.328Z,60.50
2022-12-26T11:26:31.653Z,60.70
2022-12-26T11:29:22.498Z,61.20
2022-12-26T11:32:05.916Z,62.00
2022-12-26T11:34:47.571Z,62.40
2022-12-26T11:37:43.540Z,62.80
2022-12-26T11:40:30.445Z,63.20
2022-12-26T11:43:02.970Z,63.30
2022-12-26T11:45:39.048Z,64.00
2022-12-26T11:48:30.993Z,64.30
2022-12-26T11:51:00.686Z,64.70
2022-12-26T11:53:30.339Z,64.90
2022-12-26T11:56:07.644Z,65.20
2022-12-26T11:58:38.286Z,65.20
2022-12-26T12:01:13.917Z,65.50
2022-12-26T12:03:50.539Z,65.60
2022-12-26T12:06:45.671Z,66.00
2022-12-26T12:09:47.382Z,66.40
2022-12-26T12:12:37.232Z,66.60
2022-12-26T12:15:21.811Z,67.00
2022-12-26T12:18:21.339Z,68.00
2022-12-26T12:21:17.994Z,67.90
2022-12-26T12:24:19.573Z,68.40
2022-12-26T12:27:15.612Z,68.60
2022-12-26T12:30:17.771Z,69.20
2022-12-26T12:33:16.186Z,69.40
2022-12-26T12:36:13.257Z,69.50
2022-12-26T12:39:21.981Z,70.10
2022-12-26T12:42:20.066Z,70.50
2022-12-26T12:45:29.038Z,70.90
2022-12-26T12:48:24.632Z,70.80
2022-12-26T12:51:23.095Z,70.60
2022-12-26T12:54:26.776Z,70.70
2022-12-26T12:57:26.909Z,71.10
2022-12-26T13:00:23.259Z,71.30
2022-12-26T13:03:26.298Z,71.60
2022-12-26T13:06:14.148Z,71.40
2022-12-26T13:08:55.086Z,71.70
2022-12-26T13:11:37.633Z,72.00
2022-12-26T13:14:21.536Z,72.20
2022-12-26T13:17:03.021Z,72.30
2022-12-26T13:19:51.400Z,72.20
2022-12-26T13:23:15.625Z,72.30
2022-12-26T13:25:58.900Z,72.20
2022-12-26T13:28:36.234Z,72.30
2022-12-26T13:31:05.893Z,72.60
2022-12-26T13:33:36.250Z,72.60
2022-12-26T13:36:07.759Z,72.90
2022-12-26T13:39:16.439Z,73.10
2022-12-26T13:42:33.081Z,73.30
2022-12-26T13:45:41.808Z,73.20
2022-12-26T13:48:50.639Z,73.40
2022-12-26T13:51:47.309Z,73.70
2022-12-26T13:54:18.858Z,74.00
2022-12-26T13:57:16.199Z,74.10
2022-12-26T14:00:10.265Z,74.00
2022-12-26T14:03:20.565Z,74.30
2022-12-26T14:06:29.295Z,74.60
2022-12-26T14:09:30.734Z,74.90
2022-12-26T14:12:36.024Z,74.80
2022-12-26T14:15:39.294Z,74.90
2022-12-26T14:18:36.735Z,74.90
2022-12-26T14:21:41.130Z,75.10
2022-12-26T14:24:33.949Z,75.00
2022-12-26T14:27:27.215Z,75.20
2022-12-26T14:30:23.026Z,75.40
2022-12-26T14:33:31.421Z,75.40
2022-12-26T14:36:27.378Z,75.50
2022-12-26T14:39:25.874Z,75.60
2022-12-26T14:42:39.985Z,75.70
2022-12-26T14:45:35.451Z,75.90
2022-12-26T14:48:25.487Z,76.00
2022-12-26T14:51:34.146Z,76.10
2022-12-26T14:54:40.661Z,76.40
2022-12-26T14:57:50.791Z,76.40
2022-12-26T15:00:32.842Z,76.30
2022-12-26T15:03:36.276Z,76.40
2022-12-26T15:06:34.279Z,76.70
2022-12-26T15:09:43.031Z,76.80
2022-12-26T15:12:58.530Z,77.00
2022-12-26T15:16:07.943Z,77.10
2022-12-26T15:19:16.670Z,77.30
2022-12-26T15:22:25.314Z,77.30
2022-12-26T15:25:27.339Z,77.40
2022-12-26T15:28:28.440Z,77.60
2022-12-26T15:31:32.810Z,77.70
2022-12-26T15:34:36.976Z,77.70
2022-12-26T15:37:32.312Z,77.80
2022-12-26T15:40:26.452Z,78.10
2022-12-26T15:43:35.271Z,78.10
2022-12-26T15:46:29.224Z,78.70
2022-12-26T15:49:38.108Z,78.90
2022-12-26T15:52:46.753Z,78.70
2022-12-26T15:55:49.284Z,78.90
2022-12-26T15:58:57.962Z,79.00
2022-12-26T16:01:48.143Z,78.90
2022-12-26T16:04:40.406Z,79.00
2022-12-26T16:07:50.834Z,79.00
2022-12-26T16:10:35.369Z,79.10
2022-12-26T16:13:24.836Z,79.10
2022-12-26T16:16:02.261Z,79.20
2022-12-26T16:18:34.932Z,79.20
2022-12-26T16:21:27.918Z,79.30
2022-12-26T16:23:59.003Z,79.10
2022-12-26T16:26:32.440Z,79.20
2022-12-26T16:29:03.802Z,79.30
2022-12-26T16:31:33.625Z,79.50
2022-12-26T16:34:03.651Z,79.60
2022-12-26T16:36:38.217Z,79.60
2022-12-26T16:39:12.457Z,79.70
2022-12-26T16:42:03.720Z,79.70
2022-12-26T16:44:40.022Z,79.90
2022-12-26T16:47:14.934Z,80.00
2022-12-26T16:49:46.799Z,80.20
2022-12-26T16:52:42.090Z,80.10
2022-12-26T16:55:38.253Z,80.00
2022-12-26T16:58:29.276Z,80.20
2022-12-26T17:01:22.236Z,79.90
2022-12-26T17:04:17.704Z,80.20
2022-12-26T17:07:10.988Z,80.20
2022-12-26T17:09:51.327Z,80.00
2022-12-26T17:12:37.569Z,80.40
2022-12-26T17:15:08.747Z,80.30
2022-12-26T17:17:40.483Z,80.20
2022-12-26T17:20:35.495Z,80.70
2022-12-26T17:23:44.838Z,80.70
2022-12-26T17:26:34.043Z,80.60
2022-12-26T17:29:04.948Z,81.40
2022-12-26T17:31:42.003Z,81.50
2022-12-26T17:34:28.373Z,81.20
2022-12-26T17:39:57.793Z,81.70
2022-12-26T17:42:30.723Z,82.00
2022-12-26T17:45:01.285Z,82.10
2022-12-26T17:47:31.302Z,82.40
2022-12-26T17:50:00.829Z,82.40
2022-12-26T17:52:32.160Z,82.60
2022-12-26T17:55:02.439Z,82.70
2022-12-26T17:57:32.283Z,83.10
2022-12-26T18:00:01.969Z,83.10
2022-12-26T18:02:31.725Z,83.50
2022-12-26T18:05:01.540Z,82.80
2022-12-26T18:07:31.999Z,82.70
2022-12-26T18:10:03.415Z,82.50
2022-12-26T18:12:33.053Z,82.60
2022-12-26T18:15:02.961Z,82.70
2022-12-26T18:17:35.322Z,82.90
2022-12-26T18:20:06.743Z,82.80
2022-12-26T18:22:36.495Z,83.00
2022-12-26T18:25:06.258Z,82.90
2022-12-26T18:27:36.594Z,83.10
2022-12-26T18:30:07.904Z,83.10
2022-12-26T18:32:37.491Z,83.00
2022-12-26T18:35:07.368Z,83.00
2022-12-26T18:37:37.013Z,83.00
2022-12-26T18:40:07.887Z,82.90
2022-12-26T18:42:37.454Z,82.80
2022-12-26T18:45:07.319Z,82.70
2022-12-26T18:47:36.903Z,82.90
2022-12-26T18:50:16.627Z,82.90
2022-12-26T18:52:51.567Z,82.90
2022-12-26T18:55:24.022Z,83.00
2022-12-26T18:57:54.642Z,82.80
2022-12-26T19:00:25.243Z,82.70
2022-12-26T19:02:57.140Z,83.10
2022-12-26T19:05:35.797Z,83.10
2022-12-26T19:08:05.773Z,83.10
2022-12-26T19:10:37.192Z,83.30
2022-12-26T19:13:06.803Z,83.10
2022-12-26T19:15:38.313Z,83.00
2022-12-26T19:18:08.063Z,83.00
2022-12-26T19:20:43.692Z,83.30
2022-12-26T19:23:14.228Z,83.50
2022-12-26T19:25:43.799Z,83.50
2022-12-26T19:28:13.461Z,83.70
2022-12-26T19:30:43.739Z,84.00
2022-12-26T19:33:13.346Z,84.00
2022-12-26T19:35:42.876Z,84.10
2022-12-26T19:38:15.294Z,84.20
2022-12-26T19:40:44.753Z,84.10
2022-12-26T19:43:14.323Z,84.00
2022-12-26T19:45:43.967Z,84.20
2022-12-26T19:48:13.682Z,83.90
2022-12-26T19:50:43.253Z,83.70
2022-12-26T19:53:12.874Z,83.80
2022-12-26T19:55:42.399Z,84.10
2022-12-26T19:58:11.954Z,84.30
2022-12-26T20:00:41.720Z,84.40
2022-12-26T20:03:11.715Z,84.40
2022-12-26T20:05:43.931Z,84.50
2022-12-26T20:08:14.329Z,84.50
2022-12-26T20:10:43.859Z,84.50
2022-12-26T20:13:13.444Z,84.70
2022-12-26T20:15:42.980Z,84.50
2022-12-26T20:18:15.032Z,84.60
2022-12-26T20:20:44.822Z,84.70
2022-12-26T20:23:14.332Z,84.80
2022-12-26T20:25:43.937Z,84.70
2022-12-26T20:28:13.693Z,84.80
2022-12-26T20:30:43.380Z,85.00
2022-12-26T20:33:13.810Z,84.80
2022-12-26T20:35:43.449Z,84.90
2022-12-26T20:38:13.060Z,84.90
2022-12-26T20:40:46.855Z,85.00
2022-12-26T20:43:19.690Z,85.10
2022-12-26T20:45:49.417Z,85.00
2022-12-26T20:48:19.076Z,85.10
2022-12-26T20:50:59.020Z,85.00
2022-12-26T20:53:29.275Z,84.90
2022-12-26T20:55:59.394Z,85.10
2022-12-26T20:58:31.339Z,85.20
2022-12-26T21:01:03.769Z,85.20
2022-12-26T21:03:34.458Z,85.00
2022-12-26T21:06:25.224Z,85.00
2022-12-26T21:08:55.511Z,85.10
2022-12-26T21:11:30.830Z,85.10
2022-12-26T21:14:07.853Z,85.00
2022-12-26T21:16:45.042Z,84.90
2022-12-26T21:19:15.721Z,84.80
2022-12-26T21:21:48.683Z,84.90
2022-12-26T21:24:24.900Z,85.00
2022-12-26T21:26:54.713Z,85.30
2022-12-26T21:29:27.874Z,85.40
2022-12-26T21:31:58.446Z,85.40
2022-12-26T21:34:31.391Z,85.60
2022-12-26T21:37:21.011Z,85.40
2022-12-26T21:39:52.224Z,85.50
2022-12-26T21:42:21.946Z,85.60
2022-12-26T21:44:51.584Z,85.60
2022-12-26T21:47:21.632Z,85.90
2022-12-26T21:49:51.440Z,85.60
2022-12-26T21:52:21.038Z,85.60
2022-12-26T21:55:10.259Z,85.90
2022-12-26T21:57:39.933Z,85.70
2022-12-26T22:00:10.272Z,85.70
2022-12-26T22:03:00.819Z,85.80
2022-12-26T22:05:32.246Z,86.00
2022-12-26T22:08:03.190Z,86.00
2022-12-26T22:10:54.510Z,86.00
2022-12-26T22:13:26.190Z,86.30
2022-12-26T22:16:08.536Z,86.40
2022-12-26T22:18:46.682Z,86.30
2022-12-26T22:21:20.307Z,86.30
2022-12-26T22:23:53.772Z,86.30
2022-12-26T22:26:25.846Z,86.40
2022-12-26T22:28:55.720Z,86.30
2022-12-26T22:31:33.297Z,86.20
2022-12-26T22:34:09.353Z,86.20
2022-12-26T22:36:40.996Z,86.20
2022-12-26T22:39:14.328Z,86.20
2022-12-26T22:41:43.999Z,86.30
2022-12-26T22:44:14.252Z,86.40
2022-12-26T22:46:44.652Z,86.50
2022-12-26T22:49:14.305Z,86.70
2022-12-26T22:51:44.542Z,86.60
2022-12-26T22:54:14.252Z,86.70
2022-12-26T22:56:43.869Z,86.80
2022-12-26T22:59:33.864Z,86.80
2022-12-26T23:02:04.053Z,86.60
2022-12-26T23:04:34.085Z,86.60
2022-12-26T23:07:04.017Z,86.70
2022-12-26T23:09:33.881Z,86.60
2022-12-26T23:12:23.440Z,86.50
2022-12-26T23:14:53.179Z,86.70
2022-12-26T23:17:43.289Z,86.70
2022-12-26T23:20:36.133Z,86.70
2022-12-26T23:23:05.990Z,86.90
2022-12-26T23:25:35.621Z,87.00
2022-12-26T23:28:25.070Z,86.80
2022-12-26T23:30:54.792Z,86.90
2022-12-26T23:33:24.474Z,87.00
2022-12-26T23:35:54.247Z,87.00
2022-12-26T23:38:25.002Z,87.10
2022-12-26T23:40:54.793Z,87.00
2022-12-26T23:43:24.388Z,86.90
2022-12-26T23:45:53.977Z,87.00
2022-12-26T23:48:23.622Z,87.20
2022-12-26T23:50:53.166Z,87.40
2022-12-26T23:53:22.702Z,87.40
2022-12-26T23:55:52.317Z,87.40
2022-12-26T23:58:21.900Z,87.50
